Elko, NV

11:16 AM PDT on July 27, 2016 (GMT -0700)
Elko Regional | | Change Station

Elev 5052 ft 40.82 °N, 115.79 °W | Updated 20 minutes ago

Clear
Clear
87 °F
Feels Like 87 °F
N
0
Wind Variable Wind from North

Today
High -- | Low -- °F
--% Chance of Precip.
Yesterday
High -- | Low -- °F
Precip. -- in
Pressure 30.01 in
Visibility 10.0 miles
Clouds Clear
Dew Point 28 °F
Humidity 12%
Rainfall 0.00 in
Snow Depth Not available.
5:35 AM 8:03 PM
Last Quarter, 41% visible
METAR KEKO 271756Z AUTO 00000KT 10SM CLR 31/M02 A3020 RMK AO2 SLP163 6//// T03061022 10311 20106
Pressure 30.01 in
Visibility 10.0 miles
Clouds Clear
Dew Point 28 °F
Humidity 12%
Rainfall 0.00 in
Snow Depth Not available.
5:35 AM 8:03 PM
Last Quarter, 41% visible
METAR KEKO 271756Z AUTO 00000KT 10SM CLR 31/M02 A3020 RMK AO2 SLP163 6//// T03061022 10311 20106

10-Day Weather Forecast

Almanac

Astronomy

Jul. 27, 2016 Rise Set
Actual Time
Civil Twilight
Nautical Twilight
Astronomical Twilight
Moon
Length of Visible Light
Length of Day
Tomorrow will be .
, % of the Moon is Illuminated

Today's Extremes

State Highs State Lows

Community

WunderPhotos

Upload Photos

1,927,894 photos uploaded!

WunderBlog® & News

Nearby

Air Quality

  Air Quality AQ Index Pollutant
Not available.

Snow Depth

Station Depth Elevation

Earthquake Activity

City Distance Mag. Time & Date
Minimum magnitude displayed is 2.5.

Coastal Water Temperatures

Place Temperature

Stations

Nearby Weather Stations

Station Location Temp. Windchill Dew Point Humidity Wind Precip. Elev Updated Type
                   

Watches & Warnings

There are currently no watches in effect.